createdAt,value
2023-02-18T00:00:57.816Z,101691.25
2023-02-18T00:03:25.529Z,101695.06
2023-02-18T00:05:52.505Z,101698.13
2023-02-18T00:08:19.313Z,101695.41
2023-02-18T00:10:45.857Z,101701.16
2023-02-18T00:13:12.316Z,101694.28
2023-02-18T00:15:39.293Z,101703.06
2023-02-18T00:18:06.602Z,101697.34
2023-02-18T00:20:35.669Z,101692.75
2023-02-18T00:23:03.302Z,101689.75
2023-02-18T00:25:29.751Z,101695.06
2023-02-18T00:27:56.132Z,101704.97
2023-02-18T00:30:22.568Z,101702.66
2023-02-18T00:32:49.033Z,101711.44
2023-02-18T00:35:15.496Z,101712.22
2023-02-18T00:37:41.895Z,101702.75
2023-02-18T00:40:08.605Z,101712.19
2023-02-18T00:42:35.026Z,101719.41
2023-02-18T00:45:01.433Z,101703.06
2023-02-18T00:47:27.858Z,101705.75
2023-02-18T00:49:54.277Z,101706.53
2023-02-18T00:52:20.711Z,101696.63
2023-02-18T00:54:47.163Z,101700.47
2023-02-18T00:57:13.703Z,101710.00
2023-02-18T00:59:40.101Z,101706.56
2023-02-18T01:02:07.610Z,101703.88
2023-02-18T01:04:34.084Z,101698.94
2023-02-18T01:07:00.534Z,101690.56
2023-02-18T01:09:27.029Z,101690.56
2023-02-18T01:11:53.690Z,101699.69
2023-02-18T01:14:20.150Z,101692.47
2023-02-18T01:16:46.577Z,101683.72
2023-02-18T01:19:13.147Z,101676.88
2023-02-18T01:21:39.816Z,101683.69
2023-02-18T01:24:06.778Z,101684.47
2023-02-18T01:26:33.214Z,101679.91
2023-02-18T01:28:59.623Z,101669.28
2023-02-18T01:31:26.104Z,101670.41
2023-02-18T01:33:52.542Z,101663.56
2023-02-18T01:36:19.006Z,101664.72
2023-02-18T01:38:45.476Z,101658.59
2023-02-18T01:41:12.018Z,101667.38
2023-02-18T01:43:38.812Z,101667.75
2023-02-18T01:46:13.641Z,101657.47
2023-02-18T01:48:58.810Z,101653.28
2023-02-18T01:51:38.842Z,101646.81
2023-02-18T01:54:06.759Z,101654.81
2023-02-18T01:56:36.927Z,101658.97
2023-02-18T01:59:07.099Z,101643.41
2023-02-18T02:01:33.798Z,101645.28
2023-02-18T02:04:00.376Z,101647.19
2023-02-18T02:06:26.856Z,101653.28
2023-02-18T02:08:56.900Z,101667.75
2023-02-18T02:11:32.382Z,101655.56
2023-02-18T02:14:22.804Z,101664.66
2023-02-18T02:17:11.578Z,101659.34
2023-02-18T02:20:18.582Z,101663.16
2023-02-18T02:22:57.208Z,101663.91
2023-02-18T02:25:34.571Z,101650.59
2023-02-18T02:28:38.631Z,101647.91
2023-02-18T02:31:27.024Z,101648.66
2023-02-18T02:34:15.158Z,101642.91
2023-02-18T02:36:49.291Z,101643.31
2023-02-18T02:39:26.296Z,101641.41
2023-02-18T02:41:54.673Z,101645.25
2023-02-18T02:44:34.625Z,101634.19
2023-02-18T02:47:09.002Z,101642.53
2023-02-18T02:49:53.992Z,101626.59
2023-02-18T02:52:31.166Z,101623.53
2023-02-18T02:54:57.720Z,101618.25
2023-02-18T02:57:24.160Z,101620.50
2023-02-18T02:59:53.987Z,101607.97
2023-02-18T03:02:48.268Z,101591.16
2023-02-18T03:05:44.631Z,101595.78
2023-02-18T03:08:41.702Z,101591.53
2023-02-18T03:11:13.320Z,101583.94
2023-02-18T03:13:58.371Z,101594.19
2023-02-18T03:16:28.769Z,101589.31
2023-02-18T03:19:15.772Z,101583.19
2023-02-18T03:21:46.055Z,101566.41
2023-02-18T03:24:30.186Z,101576.28
2023-02-18T03:27:00.889Z,101584.69
2023-02-18T03:29:27.839Z,101573.25
2023-02-18T03:31:57.533Z,101554.88
2023-02-18T03:34:28.221Z,101564.78
2023-02-18T03:36:56.161Z,101569.34
2023-02-18T03:39:23.957Z,101567.00
2023-02-18T03:41:50.584Z,101572.00
2023-02-18T03:44:17.061Z,101569.31
2023-02-18T03:46:44.628Z,101559.47
2023-02-18T03:49:14.952Z,101547.28
2023-02-18T03:51:42.228Z,101554.13
2023-02-18T03:54:09.317Z,101546.53
2023-02-18T03:56:36.252Z,101544.19
2023-02-18T03:59:03.088Z,101546.06
2023-02-18T04:01:29.750Z,101552.91
2023-02-18T04:03:56.374Z,101546.81
2023-02-18T04:06:23.503Z,101550.22
2023-02-18T04:08:50.035Z,101551.84
2023-02-18T04:11:17.156Z,101540.44
2023-02-18T04:13:43.603Z,101538.56
2023-02-18T04:16:10.276Z,101546.34
2023-02-18T04:18:36.820Z,101534.78
2023-02-18T04:21:03.240Z,101523.78
2023-02-18T04:23:29.671Z,101536.78
2023-02-18T04:25:56.103Z,101526.44
2023-02-18T04:28:22.610Z,101516.00
2023-02-18T04:30:49.190Z,101505.69
2023-02-18T04:33:15.894Z,101504.94
2023-02-18T04:35:42.424Z,101497.69
2023-02-18T04:38:10.233Z,101493.97
2023-02-18T04:40:36.659Z,101491.34
2023-02-18T04:43:03.133Z,101474.34
2023-02-18T04:45:29.704Z,101472.09
2023-02-18T04:47:56.123Z,101478.16
2023-02-18T04:50:23.307Z,101477.00
2023-02-18T04:52:50.180Z,101477.75
2023-02-18T04:55:16.684Z,101473.22
2023-02-18T04:57:43.099Z,101474.75
2023-02-18T05:00:11.257Z,101470.47
2023-02-18T05:02:37.685Z,101462.31
2023-02-18T05:05:04.156Z,101468.31
2023-02-18T05:07:30.559Z,101461.09
2023-02-18T05:09:56.930Z,101452.31
2023-02-18T05:12:23.332Z,101456.19
2023-02-18T05:14:49.735Z,101453.50
2023-02-18T05:17:16.228Z,101451.56
2023-02-18T05:19:42.679Z,101444.63
2023-02-18T05:22:09.130Z,101440.72
2023-02-18T05:24:35.569Z,101440.84
2023-02-18T05:27:01.989Z,101428.72
2023-02-18T05:29:28.446Z,101421.16
2023-02-18T05:31:55.021Z,101414.66
2023-02-18T05:34:21.514Z,101415.03
2023-02-18T05:36:47.964Z,101411.53
2023-02-18T05:39:14.369Z,101407.28
2023-02-18T05:41:40.853Z,101390.41
2023-02-18T05:44:25.894Z,101393.06
2023-02-18T05:46:52.279Z,101384.91
2023-02-18T05:49:18.730Z,101384.94
2023-02-18T05:51:45.132Z,101369.06
2023-02-18T05:54:11.545Z,101359.41
2023-02-18T05:56:38.001Z,101351.84
2023-02-18T05:59:04.395Z,101349.44
2023-02-18T06:01:30.957Z,101351.88
2023-02-18T06:03:57.385Z,101347.00
2023-02-18T06:06:23.878Z,101327.53
2023-02-18T06:08:50.396Z,101331.34
2023-02-18T06:11:16.971Z,101322.53
2023-02-18T06:13:43.419Z,101312.50
2023-02-18T06:16:10.222Z,101304.44
2023-02-18T06:18:36.977Z,101298.00
2023-02-18T06:21:03.564Z,101293.53
2023-02-18T06:23:30.029Z,101300.34
2023-02-18T06:25:56.511Z,101281.69
2023-02-18T06:28:22.903Z,101291.94
2023-02-18T06:30:49.719Z,101281.94
2023-02-18T06:33:16.148Z,101271.19
2023-02-18T06:35:42.753Z,101276.41
2023-02-18T06:38:09.175Z,101263.53
2023-02-18T06:40:35.733Z,101261.31
2023-02-18T06:43:02.173Z,101249.16
2023-02-18T06:45:28.586Z,101253.28
2023-02-18T06:47:54.985Z,101260.88
2023-02-18T06:50:21.424Z,101249.06
2023-02-18T06:52:47.838Z,101228.59
2023-02-18T06:55:14.243Z,101225.66
2023-02-18T06:57:40.645Z,101221.38
2023-02-18T07:00:07.925Z,101216.59
2023-02-18T07:02:34.368Z,101218.81
2023-02-18T07:05:00.764Z,101206.31
2023-02-18T07:07:27.162Z,101199.09
2023-02-18T07:09:53.531Z,101205.06
2023-02-18T07:12:19.929Z,101190.59
2023-02-18T07:14:46.411Z,101176.78
2023-02-18T07:17:12.904Z,101168.09
2023-02-18T07:19:39.351Z,101148.72
2023-02-18T07:22:05.804Z,101157.78
2023-02-18T07:24:32.388Z,101136.19
2023-02-18T07:26:58.776Z,101121.38
2023-02-18T07:29:25.210Z,101128.28
2023-02-18T07:31:51.720Z,101122.25
2023-02-18T07:34:18.189Z,101120.56
2023-02-18T07:36:45.030Z,101119.00
2023-02-18T07:39:11.495Z,101119.69
2023-02-18T07:41:38.117Z,101108.13
2023-02-18T07:44:04.979Z,101105.72
2023-02-18T07:46:31.627Z,101092.69
2023-02-18T07:48:58.398Z,101087.59
2023-02-18T07:51:24.841Z,101086.91
2023-02-18T07:53:51.330Z,101088.03
2023-02-18T07:56:18.523Z,101079.50
2023-02-18T07:58:44.907Z,101077.06
2023-02-18T08:01:14.954Z,101073.09
2023-02-18T08:03:41.735Z,101070.13
2023-02-18T08:06:08.763Z,101050.50
2023-02-18T08:08:37.110Z,101038.78
2023-02-18T08:11:18.120Z,101041.53
2023-02-18T08:13:47.082Z,101037.53
2023-02-18T08:16:14.133Z,101043.56
2023-02-18T08:18:40.616Z,101035.97
2023-02-18T08:21:07.123Z,101027.81
2023-02-18T08:23:33.555Z,101024.00
2023-02-18T08:25:59.969Z,101024.50
2023-02-18T08:28:26.401Z,101027.34
2023-02-18T08:30:54.040Z,101018.53
2023-02-18T08:33:20.887Z,101012.59
2023-02-18T08:35:48.265Z,101018.91
2023-02-18T08:38:14.800Z,101020.81
2023-02-18T08:40:41.608Z,101006.19
2023-02-18T08:43:08.161Z,100993.19
2023-02-18T08:45:36.051Z,100990.09
2023-02-18T08:48:17.325Z,100983.78
2023-02-18T08:50:46.458Z,100990.31
2023-02-18T08:53:12.867Z,100987.06
2023-02-18T08:55:41.224Z,100985.63
2023-02-18T08:58:07.777Z,100989.06
2023-02-18T09:00:34.946Z,100989.28
2023-02-18T09:03:01.518Z,100983.59
2023-02-18T09:05:28.067Z,100971.72
2023-02-18T09:07:54.557Z,100972.25
2023-02-18T09:10:20.968Z,100971.03
2023-02-18T09:12:47.344Z,100974.16
2023-02-18T09:15:13.805Z,100978.34
2023-02-18T09:17:40.184Z,100967.56
2023-02-18T09:20:07.338Z,100970.88
2023-02-18T09:22:33.759Z,100969.31
2023-02-18T09:25:00.299Z,100975.16
2023-02-18T09:27:26.745Z,100964.72
2023-02-18T09:29:53.181Z,100961.41
2023-02-18T09:32:32.453Z,100955.91
2023-02-18T09:35:00.408Z,100960.53
2023-02-18T09:37:26.841Z,100966.94
2023-02-18T09:39:53.353Z,100964.19
2023-02-18T09:42:21.226Z,100956.03
2023-02-18T09:44:51.351Z,100957.91
2023-02-18T09:47:35.220Z,100951.38
2023-02-18T09:50:29.339Z,100952.41
2023-02-18T09:52:58.822Z,100956.00
2023-02-18T09:55:27.964Z,100946.97
2023-02-18T09:57:57.474Z,100955.25
2023-02-18T10:00:41.691Z,100958.31
2023-02-18T10:03:13.311Z,100960.16
2023-02-18T10:05:57.827Z,100951.41
2023-02-18T10:08:37.559Z,100958.03
2023-02-18T10:11:04.772Z,100950.94
2023-02-18T10:13:33.599Z,100957.16
2023-02-18T10:16:00.119Z,100955.94
2023-02-18T10:18:32.783Z,100949.47
2023-02-18T10:21:05.377Z,100947.81
2023-02-18T10:23:34.331Z,100956.94
2023-02-18T10:26:03.559Z,100949.66
2023-02-18T10:28:29.970Z,100954.84
2023-02-18T10:31:00.234Z,100942.34
2023-02-18T10:33:36.103Z,100960.91
2023-02-18T10:36:15.676Z,100956.69
2023-02-18T10:38:49.900Z,100962.13
2023-02-18T10:41:21.968Z,100959.41
2023-02-18T10:44:04.570Z,100954.31
2023-02-18T10:46:52.777Z,100958.94
2023-02-18T10:49:47.122Z,100955.75
2023-02-18T10:52:16.902Z,100953.75
2023-02-18T10:54:59.203Z,100957.31
2023-02-18T10:57:26.217Z,100957.50
2023-02-18T11:00:10.808Z,100936.66
2023-02-18T11:02:38.228Z,100943.44
2023-02-18T11:05:20.009Z,100942.19
2023-02-18T11:07:48.762Z,100939.19
2023-02-18T11:10:18.363Z,100948.94
2023-02-18T11:12:50.521Z,100929.16
2023-02-18T11:15:21.967Z,100932.28
2023-02-18T11:17:50.721Z,100947.00
2023-02-18T11:20:32.275Z,100930.91
2023-02-18T11:23:07.641Z,100932.97
2023-02-18T11:25:35.780Z,100946.91
2023-02-18T11:28:16.945Z,100943.44
2023-02-18T11:30:45.858Z,100920.91
2023-02-18T11:33:18.919Z,100936.59
2023-02-18T11:35:53.643Z,100938.16
2023-02-18T11:38:37.507Z,100948.41
2023-02-18T11:41:09.178Z,100940.69
2023-02-18T11:43:36.921Z,100952.81
2023-02-18T11:46:19.165Z,100954.78
2023-02-18T11:48:46.302Z,100956.66
2023-02-18T11:51:16.817Z,100962.28
2023-02-18T11:54:06.034Z,100963.63
2023-02-18T11:56:35.628Z,100966.25
2023-02-18T11:59:03.662Z,100952.06
2023-02-18T12:01:42.166Z,100939.50
2023-02-18T12:04:16.086Z,100964.31
2023-02-18T12:06:54.395Z,100966.59
2023-02-18T12:09:26.466Z,100964.38
2023-02-18T12:11:55.955Z,100967.41
2023-02-18T12:14:23.821Z,100961.81
2023-02-18T12:17:02.432Z,100968.41
2023-02-18T12:19:38.608Z,100960.81
2023-02-18T12:22:14.811Z,100964.97
2023-02-18T12:24:41.248Z,100971.78
2023-02-18T12:27:20.203Z,100964.50
2023-02-18T12:30:28.146Z,100965.53
2023-02-18T12:33:01.343Z,100964.31
2023-02-18T12:35:42.791Z,100971.03
2023-02-18T12:38:42.789Z,100973.22
2023-02-18T12:41:18.347Z,100970.66
2023-02-18T12:43:52.081Z,100975.91
2023-02-18T12:46:56.831Z,100984.63
2023-02-18T12:49:41.634Z,100991.66
2023-02-18T12:52:29.478Z,100997.31
2023-02-18T12:55:17.227Z,101008.44
2023-02-18T12:57:47.085Z,100987.94
2023-02-18T13:00:41.638Z,100996.00
2023-02-18T13:03:20.554Z,101004.03
2023-02-18T13:06:12.741Z,101006.19
2023-02-18T13:08:55.520Z,100995.47
2023-02-18T13:11:36.389Z,101010.69
2023-02-18T13:14:24.323Z,101006.44
2023-02-18T13:16:56.220Z,101009.00
2023-02-18T13:19:55.975Z,100998.69
2023-02-18T13:22:24.185Z,101015.72
2023-02-18T13:24:51.860Z,101015.00
2023-02-18T13:27:37.140Z,101016.03
2023-02-18T13:30:10.141Z,101018.00
2023-02-18T13:32:55.020Z,101012.53
2023-02-18T13:35:36.672Z,101026.13
2023-02-18T13:38:15.251Z,101020.66
2023-02-18T13:40:41.959Z,101017.84
2023-02-18T13:43:28.155Z,101009.84
2023-02-18T13:46:22.051Z,101026.72
2023-02-18T13:49:12.978Z,101018.16
2023-02-18T13:51:41.867Z,101030.72
2023-02-18T13:54:17.240Z,101028.75
2023-02-18T13:56:46.414Z,101025.00
2023-02-18T13:59:22.208Z,101037.44
2023-02-18T14:01:50.765Z,101022.06
2023-02-18T14:04:56.518Z,101047.31
2023-02-18T14:07:43.956Z,101040.88
2023-02-18T14:10:13.093Z,101035.31
2023-02-18T14:12:44.402Z,101043.31
2023-02-18T14:15:19.928Z,101049.97
2023-02-18T14:17:50.037Z,101065.16
2023-02-18T14:20:19.517Z,101056.25
2023-02-18T14:22:48.950Z,101059.34
2023-02-18T14:25:21.401Z,101069.41
2023-02-18T14:27:52.177Z,101073.25
2023-02-18T14:30:21.554Z,101070.81
2023-02-18T14:32:51.077Z,101078.38
2023-02-18T14:35:26.687Z,101073.94
2023-02-18T14:38:05.753Z,101078.78
2023-02-18T14:40:52.043Z,101081.59
2023-02-18T14:43:37.177Z,101083.44
2023-02-18T14:46:06.860Z,101099.84
2023-02-18T14:48:44.148Z,101086.50
2023-02-18T14:51:15.285Z,101104.03
2023-02-18T14:53:44.268Z,101094.63
2023-02-18T14:56:13.753Z,101088.59
2023-02-18T14:59:00.378Z,101096.25
2023-02-18T15:01:32.989Z,101088.13
2023-02-18T15:04:01.248Z,101102.50
2023-02-18T15:06:38.231Z,101103.38
2023-02-18T15:09:22.802Z,101109.47
2023-02-18T15:11:58.450Z,101114.75
2023-02-18T15:14:29.119Z,101105.25
2023-02-18T15:16:55.681Z,101114.38
2023-02-18T15:19:25.276Z,101112.69
2023-02-18T15:21:53.850Z,101135.50
2023-02-18T15:24:33.497Z,101125.47
2023-02-18T15:27:05.764Z,101138.47
2023-02-18T15:29:35.002Z,101144.63
2023-02-18T15:32:14.551Z,101157.63
2023-02-18T15:34:44.085Z,101142.81
2023-02-18T15:37:14.115Z,101145.09
2023-02-18T15:39:42.245Z,101143.78
2023-02-18T15:42:15.378Z,101146.66
2023-02-18T15:44:46.771Z,101141.09
2023-02-18T15:47:14.086Z,101151.53
2023-02-18T15:49:46.029Z,101152.47
2023-02-18T15:52:12.587Z,101150.09
2023-02-18T15:54:42.344Z,101166.44
2023-02-18T15:57:13.227Z,101158.16
2023-02-18T16:00:11.974Z,101157.34
2023-02-18T16:02:52.272Z,101184.03
2023-02-18T16:05:18.868Z,101168.81
2023-02-18T16:07:53.816Z,101178.94
2023-02-18T16:10:42.697Z,101184.69
2023-02-18T16:13:13.784Z,101186.69
2023-02-18T16:15:42.001Z,101180.41
2023-02-18T16:18:37.179Z,101189.41
2023-02-18T16:21:07.296Z,101193.88
2023-02-18T16:23:40.629Z,101200.75
2023-02-18T16:26:31.061Z,101204.34
2023-02-18T16:29:05.705Z,101206.66
2023-02-18T16:31:32.228Z,101206.91
2023-02-18T16:33:58.709Z,101218.25
2023-02-18T16:36:25.520Z,101220.72
2023-02-18T16:38:51.928Z,101228.16
2023-02-18T16:41:19.129Z,101227.88
2023-02-18T16:43:45.544Z,101229.59
2023-02-18T16:46:17.441Z,101221.94
2023-02-18T16:48:46.720Z,101234.97
2023-02-18T16:51:16.454Z,101225.84
2023-02-18T16:53:43.384Z,101221.19
2023-02-18T16:56:19.042Z,101230.50
2023-02-18T16:58:45.859Z,101236.28
2023-02-18T17:01:30.222Z,101244.16
2023-02-18T17:03:57.989Z,101236.47
2023-02-18T17:06:24.884Z,101248.31
2023-02-18T17:08:51.404Z,101258.47
2023-02-18T17:11:22.206Z,101273.56
2023-02-18T17:13:49.738Z,101272.44
2023-02-18T17:16:16.967Z,101269.53
2023-02-18T17:18:44.644Z,101276.47
2023-02-18T17:21:16.318Z,101276.69
2023-02-18T17:23:42.968Z,101276.16
2023-02-18T17:26:23.008Z,101280.13
2023-02-18T17:28:49.718Z,101284.59
2023-02-18T17:31:19.646Z,101288.06
2023-02-18T17:33:46.642Z,101296.28
2023-02-18T17:36:13.416Z,101292.97
2023-02-18T17:38:39.904Z,101300.19
2023-02-18T17:41:07.180Z,101302.59
2023-02-18T17:43:33.730Z,101307.47
2023-02-18T17:46:00.679Z,101316.19
2023-02-18T17:48:28.403Z,101315.69
2023-02-18T17:50:54.884Z,101322.28
2023-02-18T17:53:21.913Z,101329.22
2023-02-18T17:55:49.164Z,101336.28
2023-02-18T17:58:16.506Z,101328.88
2023-02-18T18:00:55.150Z,101345.66
2023-02-18T18:03:21.918Z,101340.25
2023-02-18T18:05:52.394Z,101338.41
2023-02-18T18:08:19.234Z,101336.78
2023-02-18T18:10:50.311Z,101344.19
2023-02-18T18:13:23.196Z,101352.25
2023-02-18T18:15:50.339Z,101350.06
2023-02-18T18:18:18.506Z,101351.66
2023-02-18T18:20:49.038Z,101353.63
2023-02-18T18:23:16.614Z,101361.78
2023-02-18T18:25:49.058Z,101359.38
2023-02-18T18:28:16.063Z,101352.72
2023-02-18T18:30:44.838Z,101364.00
2023-02-18T18:33:18.024Z,101367.78
2023-02-18T18:35:46.177Z,101384.31
2023-02-18T18:38:13.691Z,101382.38
2023-02-18T18:40:40.553Z,101379.75
2023-02-18T18:43:07.491Z,101378.63
2023-02-18T18:45:39.559Z,101393.50
2023-02-18T18:48:06.762Z,101389.44
2023-02-18T18:50:37.611Z,101386.16
2023-02-18T18:53:04.169Z,101385.91
2023-02-18T18:55:33.907Z,101392.53
2023-02-18T18:58:01.081Z,101386.50
2023-02-18T19:00:33.744Z,101397.00
2023-02-18T19:03:00.304Z,101393.25
2023-02-18T19:05:33.018Z,101396.06
2023-02-18T19:08:00.375Z,101403.13
2023-02-18T19:10:29.269Z,101402.16
2023-02-18T19:13:04.737Z,101403.78
2023-02-18T19:15:31.665Z,101404.16
2023-02-18T19:17:58.290Z,101405.47
2023-02-18T19:20:27.623Z,101411.31
2023-02-18T19:22:54.132Z,101408.50
2023-02-18T19:25:21.417Z,101418.28
2023-02-18T19:27:48.925Z,101415.13
2023-02-18T19:30:18.646Z,101422.84
2023-02-18T19:32:45.865Z,101424.97
2023-02-18T19:35:12.664Z,101420.91
2023-02-18T19:37:39.303Z,101424.69
2023-02-18T19:40:07.603Z,101419.25
2023-02-18T19:42:34.228Z,101416.63
2023-02-18T19:45:00.849Z,101409.19
2023-02-18T19:47:28.035Z,101420.31
2023-02-18T19:49:55.107Z,101407.91
2023-02-18T19:52:22.120Z,101401.03
2023-02-18T19:54:48.644Z,101408.16
2023-02-18T19:57:16.362Z,101409.13
2023-02-18T19:59:43.110Z,101414.22
2023-02-18T20:02:17.948Z,101404.25
2023-02-18T20:04:44.477Z,101417.66
2023-02-18T20:07:11.865Z,101411.88
2023-02-18T20:09:39.006Z,101418.59
2023-02-18T20:12:06.742Z,101406.28
2023-02-18T20:14:33.415Z,101404.66
2023-02-18T20:16:59.878Z,101404.06
2023-02-18T20:19:28.716Z,101401.13
2023-02-18T20:21:56.443Z,101407.97
2023-02-18T20:24:23.027Z,101409.28
2023-02-18T20:26:49.839Z,101415.19
2023-02-18T20:29:16.324Z,101407.69
2023-02-18T20:31:42.984Z,101405.88
2023-02-18T20:34:10.226Z,101413.81
2023-02-18T20:36:36.852Z,101417.13
2023-02-18T20:39:15.742Z,101405.09
2023-02-18T20:41:43.147Z,101404.53
2023-02-18T20:44:10.020Z,101406.94
2023-02-18T20:46:37.790Z,101410.97
2023-02-18T20:49:09.154Z,101405.44
2023-02-18T20:51:36.064Z,101409.41
2023-02-18T20:54:09.219Z,101407.81
2023-02-18T20:56:39.308Z,101406.63
2023-02-18T20:59:06.170Z,101407.66
2023-02-18T21:01:32.736Z,101393.22
2023-02-18T21:03:59.558Z,101397.59
2023-02-18T21:06:27.062Z,101384.94
2023-02-18T21:08:54.093Z,101392.94
2023-02-18T21:11:26.259Z,101398.63
2023-02-18T21:13:54.643Z,101401.28
2023-02-18T21:16:21.740Z,101397.06
2023-02-18T21:18:48.194Z,101386.19
2023-02-18T21:21:18.562Z,101386.22
2023-02-18T21:23:45.147Z,101383.66
2023-02-18T21:26:20.695Z,101384.53
2023-02-18T21:28:52.493Z,101379.16
2023-02-18T21:31:30.670Z,101377.19
2023-02-18T21:33:57.755Z,101387.13
2023-02-18T21:36:24.614Z,101372.16
2023-02-18T21:38:56.557Z,101375.38
2023-02-18T21:41:23.772Z,101376.63
2023-02-18T21:43:50.305Z,101372.06
2023-02-18T21:46:38.441Z,101376.47
2023-02-18T21:49:05.988Z,101378.50
2023-02-18T21:51:54.413Z,101372.97
2023-02-18T21:54:29.102Z,101369.28
2023-02-18T21:56:56.830Z,101361.81
2023-02-18T21:59:26.638Z,101361.00
2023-02-18T22:01:53.144Z,101367.22
2023-02-18T22:04:19.649Z,101370.78
2023-02-18T22:06:46.280Z,101373.53
2023-02-18T22:09:13.371Z,101374.41
2023-02-18T22:11:42.146Z,101362.59
2023-02-18T22:14:12.523Z,101362.03
2023-02-18T22:16:39.237Z,101360.44
2023-02-18T22:19:06.078Z,101355.16
2023-02-18T22:21:32.935Z,101352.38
2023-02-18T22:23:59.543Z,101362.06
2023-02-18T22:26:26.043Z,101353.75
2023-02-18T22:28:57.080Z,101361.75
2023-02-18T22:31:25.477Z,101357.19
2023-02-18T22:33:53.483Z,101358.69
2023-02-18T22:36:21.905Z,101355.19
2023-02-18T22:38:48.908Z,101348.28
2023-02-18T22:41:17.746Z,101336.53
2023-02-18T22:43:44.519Z,101330.19
2023-02-18T22:46:13.124Z,101336.16
2023-02-18T22:48:40.112Z,101322.50
2023-02-18T22:51:15.087Z,101326.25
2023-02-18T22:53:42.334Z,101322.41
2023-02-18T22:56:12.205Z,101321.50
2023-02-18T22:58:39.301Z,101313.97
2023-02-18T23:01:06.990Z,101306.50
2023-02-18T23:03:34.396Z,101291.34
2023-02-18T23:06:05.752Z,101307.41
2023-02-18T23:08:32.837Z,101310.41
2023-02-18T23:11:04.590Z,101298.00
2023-02-18T23:13:31.545Z,101300.69
2023-02-18T23:15:59.543Z,101290.47
2023-02-18T23:18:26.754Z,101289.19
2023-02-18T23:21:12.836Z,101295.19
2023-02-18T23:23:40.854Z,101289.75
2023-02-18T23:26:07.268Z,101283.59
2023-02-18T23:28:49.060Z,101273.72
2023-02-18T23:31:26.474Z,101264.03
2023-02-18T23:33:58.086Z,101263.13
2023-02-18T23:36:29.262Z,101255.81
2023-02-18T23:38:57.705Z,101260.25
2023-02-18T23:41:24.853Z,101263.38
2023-02-18T23:43:51.586Z,101264.94
2023-02-18T23:46:19.723Z,101259.97
2023-02-18T23:48:46.341Z,101264.84
2023-02-18T23:51:18.229Z,101267.91
2023-02-18T23:53:44.774Z,101269.75
2023-02-18T23:56:18.381Z,101269.72
2023-02-18T23:58:54.726Z,101263.22
